createdAt,value
2023-01-19T00:00:24.856Z,5.10
2023-01-19T00:05:27.098Z,5.10
2023-01-19T00:10:29.305Z,5.00
2023-01-19T00:15:32.987Z,5.00
2023-01-19T00:20:35.268Z,5.00
2023-01-19T00:25:38.577Z,5.00
2023-01-19T00:30:43.260Z,5.10
2023-01-19T00:35:50.579Z,5.00
2023-01-19T00:40:53.015Z,5.00
2023-01-19T00:45:56.650Z,5.10
2023-01-19T00:50:59.039Z,5.10
2023-01-19T00:56:01.233Z,5.10
2023-01-19T01:01:05.257Z,5.10
2023-01-19T01:06:07.581Z,5.10
2023-01-19T01:11:09.765Z,4.90
2023-01-19T01:16:15.432Z,4.90
2023-01-19T01:21:17.601Z,4.90
2023-01-19T01:26:19.815Z,4.80
2023-01-19T01:31:23.493Z,4.70
2023-01-19T01:36:25.894Z,4.70
2023-01-19T01:41:28.042Z,4.70
2023-01-19T01:46:33.203Z,4.70
2023-01-19T01:51:42.308Z,4.70
2023-01-19T01:56:47.759Z,4.60
2023-01-19T02:01:52.222Z,4.60
2023-01-19T02:06:54.439Z,4.60
2023-01-19T02:11:57.269Z,4.70
2023-01-19T02:17:01.313Z,4.60
2023-01-19T02:22:12.761Z,4.60
2023-01-19T02:27:17.302Z,4.60
2023-01-19T02:32:19.594Z,4.60
2023-01-19T02:37:22.300Z,4.70
2023-01-19T02:42:32.280Z,4.80
2023-01-19T02:47:39.350Z,4.70
2023-01-19T02:52:41.631Z,4.60
2023-01-19T02:57:58.415Z,4.70
2023-01-19T03:03:20.596Z,4.70
2023-01-19T03:08:42.267Z,4.70
2023-01-19T03:13:52.877Z,4.70
2023-01-19T03:19:02.964Z,4.70
2023-01-19T03:24:09.734Z,4.70
2023-01-19T03:29:17.097Z,4.70
2023-01-19T03:34:21.524Z,4.60
2023-01-19T03:39:26.637Z,4.70
2023-01-19T03:44:34.784Z,4.60
2023-01-19T03:49:40.289Z,4.70
2023-01-19T03:54:42.931Z,4.60
2023-01-19T03:59:46.407Z,4.70
2023-01-19T04:04:48.548Z,4.70
2023-01-19T04:09:50.701Z,4.70
2023-01-19T04:14:54.486Z,4.60
2023-01-19T04:19:56.677Z,4.50
2023-01-19T04:24:58.979Z,4.50
2023-01-19T04:30:04.365Z,4.50
2023-01-19T04:35:07.127Z,4.50
2023-01-19T04:40:11.214Z,4.60
2023-01-19T04:45:15.388Z,4.60
2023-01-19T04:50:17.792Z,4.60
2023-01-19T04:55:19.954Z,4.50
2023-01-19T05:00:23.836Z,4.50
2023-01-19T05:05:25.962Z,4.50
2023-01-19T05:10:28.307Z,4.40
2023-01-19T05:15:32.005Z,4.40
2023-01-19T05:20:34.302Z,4.40
2023-01-19T05:25:36.544Z,4.40
2023-01-19T05:30:40.290Z,4.40
2023-01-19T05:35:42.574Z,4.40
2023-01-19T05:40:44.932Z,4.40
2023-01-19T05:45:48.628Z,4.40
2023-01-19T05:50:51.588Z,4.40
2023-01-19T05:55:54.538Z,4.40
2023-01-19T06:01:03.782Z,4.50
2023-01-19T06:06:07.221Z,4.50
2023-01-19T06:11:09.739Z,4.40
2023-01-19T06:16:13.616Z,4.40
2023-01-19T06:21:16.182Z,4.40
2023-01-19T06:26:18.721Z,4.60
2023-01-19T06:31:22.920Z,4.50
2023-01-19T06:36:25.627Z,4.50
2023-01-19T06:41:28.239Z,4.40
2023-01-19T06:46:32.494Z,4.50
2023-01-19T06:51:36.197Z,4.40
2023-01-19T06:56:44.548Z,4.40
2023-01-19T07:02:27.715Z,4.40
2023-01-19T07:07:30.489Z,4.60
2023-01-19T07:12:34.755Z,4.60
2023-01-19T07:17:39.341Z,4.60
2023-01-19T07:22:42.807Z,4.70
2023-01-19T07:27:46.076Z,4.80
2023-01-19T07:33:12.330Z,4.70
2023-01-19T07:38:18.869Z,4.70
2023-01-19T07:43:21.347Z,4.60
2023-01-19T07:48:27.868Z,4.70
2023-01-19T07:53:34.591Z,4.60
2023-01-19T07:58:38.821Z,4.70
2023-01-19T08:03:43.069Z,4.70
2023-01-19T08:08:52.542Z,4.80
2023-01-19T08:14:08.020Z,4.90
2023-01-19T08:19:41.519Z,4.80
2023-01-19T08:24:45.443Z,4.80
2023-01-19T08:29:49.635Z,4.80
2023-01-19T08:34:58.729Z,4.80
2023-01-19T08:40:16.601Z,4.90
2023-01-19T08:45:20.121Z,5.00
2023-01-19T08:50:27.856Z,5.00
2023-01-19T08:55:30.716Z,4.90
2023-01-19T09:00:35.178Z,5.00
2023-01-19T09:05:46.399Z,5.00
2023-01-19T09:10:53.217Z,5.20
2023-01-19T09:15:56.469Z,5.30
2023-01-19T09:21:02.423Z,5.40
2023-01-19T09:26:10.706Z,5.30
2023-01-19T09:31:21.146Z,5.30
2023-01-19T09:36:29.805Z,5.30
2023-01-19T09:41:36.641Z,5.30
2023-01-19T09:46:43.075Z,5.30
2023-01-19T09:52:25.347Z,5.30
2023-01-19T09:57:46.717Z,5.40
2023-01-19T10:02:58.300Z,5.20
2023-01-19T10:08:41.473Z,5.20
2023-01-19T10:13:55.539Z,5.40
2023-01-19T10:19:26.683Z,5.40
2023-01-19T10:24:47.712Z,5.50
2023-01-19T10:30:24.332Z,5.60
2023-01-19T10:35:29.668Z,5.70
2023-01-19T10:40:54.820Z,5.70
2023-01-19T10:46:01.573Z,5.60
2023-01-19T10:51:10.298Z,5.60
2023-01-19T10:56:21.881Z,5.60
2023-01-19T11:01:28.323Z,5.60
2023-01-19T11:06:33.308Z,5.70
2023-01-19T11:11:52.224Z,5.80
2023-01-19T11:17:17.137Z,5.70
2023-01-19T11:22:30.409Z,5.80
2023-01-19T11:27:52.197Z,5.90
2023-01-19T11:32:55.395Z,6.00
2023-01-19T11:38:21.573Z,5.90
2023-01-19T11:43:43.475Z,5.90
2023-01-19T11:49:04.640Z,6.00
2023-01-19T11:54:21.544Z,6.10
2023-01-19T11:59:26.827Z,6.20
2023-01-19T12:04:39.803Z,6.30
2023-01-19T12:09:51.208Z,6.30
2023-01-19T12:15:01.523Z,6.30
2023-01-19T12:20:28.575Z,6.50
2023-01-19T12:25:54.948Z,6.40
2023-01-19T12:31:17.150Z,6.50
2023-01-19T12:36:38.452Z,6.60
2023-01-19T12:41:58.340Z,6.60
2023-01-19T12:47:20.504Z,6.10
2023-01-19T12:52:29.546Z,6.20
2023-01-19T12:57:40.868Z,6.30
2023-01-19T13:02:46.877Z,6.30
2023-01-19T13:08:22.851Z,6.30
2023-01-19T13:13:31.586Z,6.30
2023-01-19T13:18:57.159Z,6.20
2023-01-19T13:24:25.176Z,6.30
2023-01-19T13:29:32.917Z,6.20
2023-01-19T13:34:46.715Z,6.30
2023-01-19T13:40:03.831Z,6.30
2023-01-19T13:45:31.474Z,6.30
2023-01-19T13:50:45.731Z,6.30
2023-01-19T13:56:07.168Z,6.50
2023-01-19T14:01:23.843Z,6.40
2023-01-19T14:07:31.111Z,6.40
2023-01-19T14:13:00.272Z,6.40
2023-01-19T14:18:12.026Z,6.50
2023-01-19T14:23:45.819Z,6.50
2023-01-19T14:28:53.283Z,6.30
2023-01-19T14:33:57.031Z,6.30
2023-01-19T14:39:16.620Z,6.30
2023-01-19T14:44:32.013Z,6.20
2023-01-19T14:49:38.862Z,6.10
2023-01-19T14:54:51.487Z,6.00
2023-01-19T14:59:55.377Z,6.00
2023-01-19T15:05:02.576Z,6.10
2023-01-19T15:10:17.541Z,6.10
2023-01-19T15:15:26.803Z,6.10
2023-01-19T15:20:29.920Z,6.10
2023-01-19T15:25:35.267Z,6.10
2023-01-19T15:30:39.551Z,6.10
2023-01-19T15:35:43.363Z,6.20
2023-01-19T15:40:51.396Z,6.30
2023-01-19T15:46:00.733Z,6.30
2023-01-19T15:51:03.571Z,6.20
2023-01-19T15:56:15.587Z,6.20
2023-01-19T16:01:20.818Z,6.10
2023-01-19T16:06:23.419Z,6.20
2023-01-19T16:11:28.701Z,6.10
2023-01-19T16:16:31.488Z,6.10
2023-01-19T16:21:34.099Z,6.10
2023-01-19T16:26:37.740Z,6.10
2023-01-19T16:31:42.495Z,6.10
2023-01-19T16:36:45.245Z,6.10
2023-01-19T16:41:49.293Z,6.10
2023-01-19T16:46:51.907Z,6.10
2023-01-19T16:51:54.657Z,6.00
2023-01-19T16:56:59.097Z,6.00
2023-01-19T17:02:01.899Z,6.00
2023-01-19T17:07:04.405Z,6.00
2023-01-19T17:12:08.247Z,6.00
2023-01-19T17:17:10.799Z,6.00
2023-01-19T17:22:13.949Z,5.90
2023-01-19T17:27:20.807Z,5.90
2023-01-19T17:32:23.392Z,5.90
2023-01-19T17:37:26.172Z,5.90
2023-01-19T17:42:30.348Z,5.90
2023-01-19T17:47:34.461Z,6.00
2023-01-19T17:52:36.914Z,6.00
2023-01-19T17:57:40.858Z,5.90
2023-01-19T18:02:43.091Z,5.90
2023-01-19T18:07:45.665Z,5.80
2023-01-19T18:12:49.240Z,5.80
2023-01-19T18:17:51.437Z,5.90
2023-01-19T18:22:53.604Z,5.80
2023-01-19T18:27:57.155Z,5.80
2023-01-19T18:32:59.380Z,5.80
2023-01-19T18:38:01.596Z,5.80
2023-01-19T18:43:05.172Z,5.80
2023-01-19T18:48:07.892Z,5.80
2023-01-19T18:53:10.136Z,5.80
2023-01-19T18:58:13.745Z,5.80
2023-01-19T19:03:16.751Z,5.90
2023-01-19T19:08:18.994Z,5.80
2023-01-19T19:13:22.680Z,5.80
2023-01-19T19:18:24.985Z,5.80
2023-01-19T19:23:27.365Z,5.80
2023-01-19T19:28:31.131Z,5.80
2023-01-19T19:33:34.232Z,5.80
2023-01-19T19:38:37.107Z,5.90
2023-01-19T19:43:42.161Z,5.90
2023-01-19T19:48:48.157Z,5.70
2023-01-19T19:53:51.893Z,5.60
2023-01-19T19:58:58.366Z,5.60
2023-01-19T20:04:08.248Z,5.60
2023-01-19T20:09:12.448Z,5.60
2023-01-19T20:14:16.539Z,5.60
2023-01-19T20:19:18.897Z,5.60
2023-01-19T20:24:22.346Z,5.60
2023-01-19T20:29:25.871Z,5.50
2023-01-19T20:34:33.368Z,5.50
2023-01-19T20:39:36.379Z,5.60
2023-01-19T20:44:40.362Z,5.40
2023-01-19T20:49:42.715Z,5.50
2023-01-19T20:54:45.449Z,5.50
2023-01-19T20:59:49.615Z,5.60
2023-01-19T21:04:51.976Z,5.60
2023-01-19T21:09:54.307Z,5.60
2023-01-19T21:14:57.835Z,5.70
2023-01-19T21:20:00.050Z,5.70
2023-01-19T21:25:02.228Z,5.60
2023-01-19T21:30:07.534Z,5.60
2023-01-19T21:35:10.834Z,5.60
2023-01-19T21:40:14.011Z,5.60
2023-01-19T21:45:17.749Z,5.50
2023-01-19T21:50:19.912Z,5.50
2023-01-19T21:55:22.073Z,5.60
2023-01-19T22:00:25.832Z,5.50
2023-01-19T22:05:28.028Z,5.50
2023-01-19T22:10:30.291Z,5.40
2023-01-19T22:15:34.037Z,5.50
2023-01-19T22:20:36.562Z,5.50
2023-01-19T22:25:38.801Z,5.50
2023-01-19T22:30:42.397Z,5.40
2023-01-19T22:35:44.710Z,5.50
2023-01-19T22:40:46.876Z,5.40
2023-01-19T22:45:50.564Z,5.40
2023-01-19T22:50:56.091Z,5.40
2023-01-19T22:55:58.271Z,5.50
2023-01-19T23:01:06.897Z,5.40
2023-01-19T23:06:11.726Z,5.30
2023-01-19T23:11:16.541Z,5.30
2023-01-19T23:16:21.397Z,5.20
2023-01-19T23:21:26.132Z,5.20
2023-01-19T23:26:30.034Z,5.20
2023-01-19T23:31:36.769Z,5.00
2023-01-19T23:36:41.207Z,5.10
2023-01-19T23:41:43.797Z,5.00
2023-01-19T23:46:47.453Z,4.90
2023-01-19T23:51:49.614Z,4.80
2023-01-19T23:56:51.872Z,4.80
